createdAt,value
2018-10-01T00:00:07.018Z,48.40
2018-10-01T00:02:35.417Z,48.40
2018-10-01T00:05:03.791Z,48.30
2018-10-01T00:07:32.166Z,48.50
2018-10-01T00:10:00.627Z,48.50
2018-10-01T00:12:29.032Z,48.40
2018-10-01T00:14:57.417Z,48.30
2018-10-01T00:17:25.791Z,48.40
2018-10-01T00:19:59.446Z,48.30
2018-10-01T00:22:33.315Z,48.40
2018-10-01T00:25:01.736Z,49.10
2018-10-01T00:27:30.236Z,48.50
2018-10-01T00:29:58.743Z,48.40
2018-10-01T00:32:27.196Z,48.50
2018-10-01T00:34:55.595Z,48.70
2018-10-01T00:37:23.976Z,48.60
2018-10-01T00:39:52.486Z,48.80
2018-10-01T00:42:20.895Z,48.50
2018-10-01T00:44:49.267Z,48.50
2018-10-01T00:47:17.664Z,48.30
2018-10-01T00:49:46.144Z,48.30
2018-10-01T00:52:14.526Z,48.30
2018-10-01T00:54:42.915Z,48.10
2018-10-01T00:57:11.366Z,48.20
2018-10-01T00:59:39.740Z,48.20
2018-10-01T01:02:08.151Z,48.30
2018-10-01T01:04:36.520Z,49.10
2018-10-01T01:07:05.467Z,48.80
2018-10-01T01:09:33.839Z,48.80
2018-10-01T01:12:02.263Z,49.00
2018-10-01T01:14:30.942Z,49.20
2018-10-01T01:16:59.466Z,48.90
2018-10-01T01:19:27.859Z,48.60
2018-10-01T01:21:56.256Z,48.90
2018-10-01T01:24:24.675Z,48.80
2018-10-01T01:26:53.295Z,48.50
2018-10-01T01:29:21.739Z,48.40
2018-10-01T01:31:50.464Z,48.20
2018-10-01T01:34:18.867Z,48.20
2018-10-01T01:36:47.267Z,48.30
2018-10-01T01:39:15.652Z,48.30
2018-10-01T01:41:44.028Z,48.30
2018-10-01T01:44:12.404Z,48.30
2018-10-01T01:46:40.786Z,48.90
2018-10-01T01:49:09.220Z,48.40
2018-10-01T01:51:37.598Z,48.40
2018-10-01T01:54:05.991Z,48.50
2018-10-01T01:56:34.403Z,48.50
2018-10-01T01:59:02.764Z,48.60
2018-10-01T02:01:31.143Z,48.60
2018-10-01T02:03:59.527Z,48.50
2018-10-01T02:06:27.914Z,48.50
2018-10-01T02:08:56.319Z,48.50
2018-10-01T02:11:24.856Z,48.50
2018-10-01T02:13:53.236Z,48.40
2018-10-01T02:16:21.612Z,48.30
2018-10-01T02:18:50.073Z,48.30
2018-10-01T02:21:18.464Z,48.30
2018-10-01T02:23:46.898Z,48.30
2018-10-01T02:26:15.288Z,48.20
2018-10-01T02:28:43.657Z,48.10
2018-10-01T02:31:12.058Z,48.10
2018-10-01T02:33:40.427Z,48.00
2018-10-01T02:36:08.803Z,48.00
2018-10-01T02:38:37.186Z,48.10
2018-10-01T02:41:06.069Z,48.10
2018-10-01T02:43:34.446Z,48.10
2018-10-01T02:46:03.063Z,48.20
2018-10-01T02:48:31.459Z,48.20
2018-10-01T02:51:00.129Z,48.20
2018-10-01T02:53:33.815Z,48.30
2018-10-01T02:56:02.185Z,48.50
2018-10-01T02:58:30.569Z,48.40
2018-10-01T03:00:58.951Z,48.30
2018-10-01T03:03:27.344Z,48.20
2018-10-01T03:05:55.781Z,48.30
2018-10-01T03:08:24.139Z,48.30
2018-10-01T03:10:52.519Z,48.40
2018-10-01T03:13:20.888Z,48.50
2018-10-01T03:15:49.267Z,48.50
2018-10-01T03:18:17.627Z,48.50
2018-10-01T03:20:46.011Z,48.30
2018-10-01T03:23:14.391Z,48.20
2018-10-01T03:25:42.828Z,48.10
2018-10-01T03:28:11.210Z,47.90
2018-10-01T03:30:39.579Z,47.80
2018-10-01T03:33:07.967Z,47.80
2018-10-01T03:35:36.348Z,47.70
2018-10-01T03:38:04.728Z,47.70
2018-10-01T03:40:33.203Z,47.50
2018-10-01T03:43:02.873Z,47.30
2018-10-01T03:45:31.256Z,47.30
2018-10-01T03:47:59.655Z,47.10
2018-10-01T03:50:28.023Z,47.00
2018-10-01T03:52:56.423Z,47.00
2018-10-01T03:55:24.785Z,47.30
2018-10-01T03:57:53.167Z,46.70
2018-10-01T04:00:21.581Z,46.80
2018-10-01T04:02:49.991Z,46.80
2018-10-01T04:05:18.365Z,46.90
2018-10-01T04:07:46.723Z,46.80
2018-10-01T04:10:15.080Z,46.70
2018-10-01T04:12:43.460Z,46.70
2018-10-01T04:15:11.857Z,46.60
2018-10-01T04:17:40.223Z,46.70
2018-10-01T04:20:08.624Z,46.70
2018-10-01T04:22:38.167Z,46.70
2018-10-01T04:25:07.554Z,46.60
2018-10-01T04:27:36.455Z,46.80
2018-10-01T04:30:05.912Z,46.80
2018-10-01T04:32:34.289Z,46.90
2018-10-01T04:35:02.678Z,46.90
2018-10-01T04:37:31.049Z,46.90
2018-10-01T04:39:59.935Z,46.90
2018-10-01T04:42:28.362Z,46.80
2018-10-01T04:44:56.769Z,46.70
2018-10-01T04:47:25.152Z,46.50
2018-10-01T04:49:53.523Z,46.40
2018-10-01T04:52:21.911Z,46.40
2018-10-01T04:54:50.291Z,46.80
2018-10-01T04:57:18.669Z,46.20
2018-10-01T04:59:47.034Z,46.10
2018-10-01T05:02:15.432Z,45.90
2018-10-01T05:04:43.814Z,45.80
2018-10-01T05:07:12.209Z,45.80
2018-10-01T05:09:40.691Z,45.80
2018-10-01T05:12:09.043Z,45.80
2018-10-01T05:14:37.458Z,45.80
2018-10-01T05:17:06.372Z,45.70
2018-10-01T05:19:34.972Z,45.40
2018-10-01T05:22:03.371Z,45.30
2018-10-01T05:24:32.772Z,45.20
2018-10-01T05:27:01.228Z,45.60
2018-10-01T05:29:29.619Z,45.10
2018-10-01T05:31:58.013Z,45.10
2018-10-01T05:34:26.387Z,45.10
2018-10-01T05:36:54.784Z,45.20
2018-10-01T05:39:23.169Z,45.20
2018-10-01T05:41:51.547Z,45.30
2018-10-01T05:44:19.935Z,45.20
2018-10-01T05:46:48.314Z,46.10
2018-10-01T05:49:16.746Z,45.30
2018-10-01T05:51:45.079Z,45.40
2018-10-01T05:54:13.464Z,45.50
2018-10-01T05:56:41.864Z,45.50
2018-10-01T05:59:10.802Z,45.50
2018-10-01T06:01:39.220Z,45.40
2018-10-01T06:04:07.608Z,45.30
2018-10-01T06:06:35.980Z,45.20
2018-10-01T06:09:06.580Z,45.30
2018-10-01T06:11:34.943Z,45.20
2018-10-01T06:14:03.314Z,45.30
2018-10-01T06:16:31.679Z,45.50
2018-10-01T06:19:00.042Z,45.90
2018-10-01T06:21:28.416Z,45.30
2018-10-01T06:23:56.794Z,45.30
2018-10-01T06:26:25.164Z,45.40
2018-10-01T06:28:53.535Z,45.30
2018-10-01T06:31:21.955Z,45.30
2018-10-01T06:33:50.343Z,45.40
2018-10-01T06:36:18.749Z,45.20
2018-10-01T06:38:47.096Z,45.30
2018-10-01T06:41:15.483Z,45.30
2018-10-01T06:43:43.882Z,45.10
2018-10-01T06:46:12.291Z,45.70
2018-10-01T06:48:40.672Z,45.00
2018-10-01T06:51:09.080Z,45.10
2018-10-01T06:53:37.444Z,45.10
2018-10-01T06:56:06.062Z,45.20
2018-10-01T06:58:34.423Z,45.30
2018-10-01T07:01:02.800Z,46.00
2018-10-01T07:03:31.195Z,45.40
2018-10-01T07:05:59.833Z,45.60
2018-10-01T07:08:28.166Z,45.60
2018-10-01T07:10:56.540Z,45.60
2018-10-01T07:13:25.373Z,46.20
2018-10-01T07:15:53.735Z,45.00
2018-10-01T07:18:22.200Z,45.60
2018-10-01T07:20:50.580Z,45.70
2018-10-01T07:23:19.012Z,45.70
2018-10-01T07:25:47.463Z,45.70
2018-10-01T07:28:15.932Z,45.70
2018-10-01T07:30:44.422Z,45.90
2018-10-01T07:33:12.823Z,46.10
2018-10-01T07:35:41.234Z,46.10
2018-10-01T07:38:09.615Z,46.70
2018-10-01T07:40:38.016Z,46.10
2018-10-01T07:43:06.428Z,45.90
2018-10-01T07:45:34.920Z,46.10
2018-10-01T07:48:03.303Z,46.00
2018-10-01T07:50:31.699Z,45.90
2018-10-01T07:53:00.081Z,45.70
2018-10-01T07:55:28.666Z,45.60
2018-10-01T07:57:57.131Z,45.70
2018-10-01T08:00:25.554Z,45.70
2018-10-01T08:02:54.023Z,45.70
2018-10-01T08:05:22.375Z,45.70
2018-10-01T08:07:51.151Z,45.70
2018-10-01T08:10:19.608Z,45.70
2018-10-01T08:12:48.102Z,45.70
2018-10-01T08:15:16.598Z,45.80
2018-10-01T08:17:44.987Z,45.90
2018-10-01T08:20:13.401Z,45.90
2018-10-01T08:22:41.740Z,45.90
2018-10-01T08:25:10.121Z,45.90
2018-10-01T08:27:38.514Z,45.90
2018-10-01T08:30:06.930Z,45.90
2018-10-01T08:32:35.384Z,45.70
2018-10-01T08:35:03.740Z,45.60
2018-10-01T08:37:32.108Z,45.60
2018-10-01T08:40:00.491Z,45.50
2018-10-01T08:42:28.871Z,45.50
2018-10-01T08:44:57.315Z,45.40
2018-10-01T08:47:25.825Z,45.40
2018-10-01T08:50:34.071Z,45.20
2018-10-01T08:53:08.986Z,45.00
2018-10-01T08:55:37.476Z,44.70
2018-10-01T08:58:05.878Z,44.70
2018-10-01T09:00:34.280Z,44.40
2018-10-01T09:03:02.797Z,44.20
2018-10-01T09:05:31.236Z,44.30
2018-10-01T09:07:59.750Z,44.20
2018-10-01T09:10:28.129Z,44.00
2018-10-01T09:12:56.633Z,43.80
2018-10-01T09:15:25.069Z,43.30
2018-10-01T09:17:53.479Z,43.10
2018-10-01T09:20:22.051Z,43.30
2018-10-01T09:22:50.599Z,43.20
2018-10-01T09:25:19.126Z,43.00
2018-10-01T09:27:47.607Z,42.60
2018-10-01T09:30:16.048Z,42.60
2018-10-01T09:32:44.460Z,42.10
2018-10-01T09:35:12.931Z,42.20
2018-10-01T09:37:41.291Z,41.80
2018-10-01T09:40:09.820Z,42.10
2018-10-01T09:42:38.202Z,41.60
2018-10-01T09:45:06.744Z,42.10
2018-10-01T09:47:35.153Z,41.50
2018-10-01T09:50:03.576Z,41.00
2018-10-01T09:52:32.065Z,40.70
2018-10-01T09:55:00.371Z,41.10
2018-10-01T09:57:28.752Z,40.30
2018-10-01T09:59:57.169Z,40.00
2018-10-01T10:02:25.615Z,40.20
2018-10-01T10:04:54.186Z,39.90
2018-10-01T10:07:22.471Z,40.00
2018-10-01T10:09:51.123Z,40.00
2018-10-01T10:12:19.528Z,39.30
2018-10-01T10:14:47.915Z,39.30
2018-10-01T10:17:16.400Z,38.70
2018-10-01T10:19:44.893Z,38.60
2018-10-01T10:22:13.370Z,38.70
2018-10-01T10:24:41.678Z,38.60
2018-10-01T10:27:10.128Z,38.20
2018-10-01T10:29:38.443Z,38.80
2018-10-01T10:32:06.894Z,38.50
2018-10-01T10:34:35.407Z,38.30
2018-10-01T10:37:03.792Z,38.30
2018-10-01T10:42:53.359Z,37.10
2018-10-01T10:57:05.092Z,37.70
2018-10-01T10:59:33.469Z,37.60
2018-10-01T11:02:01.945Z,38.00
2018-10-01T11:04:30.291Z,37.70
2018-10-01T11:06:58.684Z,37.70
2018-10-01T11:09:27.087Z,37.60
2018-10-01T11:11:55.482Z,37.70
2018-10-01T11:14:24.055Z,37.70
2018-10-01T11:16:52.375Z,38.10
2018-10-01T11:19:20.917Z,37.30
2018-10-01T11:21:49.195Z,37.70
2018-10-01T11:24:17.566Z,37.70
2018-10-01T11:26:45.999Z,37.80
2018-10-01T11:29:14.348Z,37.80
2018-10-01T11:31:42.780Z,37.70
2018-10-01T11:34:11.194Z,38.20
2018-10-01T11:36:39.719Z,37.70
2018-10-01T11:39:10.587Z,37.30
2018-10-01T11:41:39.076Z,37.00
2018-10-01T11:44:07.797Z,37.40
2018-10-01T11:46:36.272Z,37.40
2018-10-01T11:49:04.760Z,37.70
2018-10-01T11:51:33.207Z,37.70
2018-10-01T11:54:01.629Z,37.60
2018-10-01T11:56:30.139Z,37.60
2018-10-01T11:59:03.141Z,37.60
2018-10-01T12:01:31.612Z,37.60
2018-10-01T12:04:00.112Z,37.70
2018-10-01T12:06:28.520Z,37.70
2018-10-01T12:08:56.936Z,37.70
2018-10-01T12:11:25.371Z,37.70
2018-10-01T12:13:53.855Z,38.00
2018-10-01T12:16:22.238Z,37.70
2018-10-01T12:18:50.619Z,37.90
2018-10-01T12:21:19.132Z,37.90
2018-10-01T12:23:47.581Z,37.90
2018-10-01T12:26:16.120Z,37.90
2018-10-01T12:28:44.496Z,38.10
2018-10-01T12:31:12.896Z,37.70
2018-10-01T12:33:41.382Z,37.70
2018-10-01T12:36:09.893Z,38.10
2018-10-01T12:38:38.358Z,38.20
2018-10-01T12:41:06.925Z,38.40
2018-10-01T12:43:35.309Z,38.20
2018-10-01T12:46:03.705Z,38.10
2018-10-01T12:48:32.099Z,37.80
2018-10-01T12:51:01.327Z,38.40
2018-10-01T12:53:29.687Z,38.00
2018-10-01T12:55:58.071Z,38.10
2018-10-01T12:58:26.479Z,38.20
2018-10-01T13:00:54.860Z,38.70
2018-10-01T13:03:23.244Z,38.30
2018-10-01T13:05:51.705Z,38.20
2018-10-01T13:08:20.088Z,38.10
2018-10-01T13:10:48.471Z,37.80
2018-10-01T13:13:16.903Z,37.60
2018-10-01T13:15:45.409Z,37.80
2018-10-01T13:18:15.111Z,38.00
2018-10-01T13:20:43.572Z,38.00
2018-10-01T13:23:11.976Z,37.80
2018-10-01T13:25:40.371Z,37.80
2018-10-01T13:28:08.740Z,37.90
2018-10-01T13:30:37.243Z,38.30
2018-10-01T13:33:05.919Z,38.20
2018-10-01T13:35:34.367Z,38.00
2018-10-01T13:38:02.866Z,38.40
2018-10-01T13:40:32.291Z,38.20
2018-10-01T13:43:00.667Z,37.90
2018-10-01T13:45:29.076Z,37.80
2018-10-01T13:47:57.491Z,37.30
2018-10-01T13:50:25.878Z,37.10
2018-10-01T13:52:55.236Z,37.70
2018-10-01T13:55:23.653Z,37.10
2018-10-01T13:57:52.200Z,37.00
2018-10-01T14:00:20.636Z,36.90
2018-10-01T14:02:49.007Z,36.70
2018-10-01T14:05:17.475Z,36.70
2018-10-01T14:07:45.955Z,36.50
2018-10-01T14:10:14.313Z,36.60
2018-10-01T14:12:42.711Z,36.20
2018-10-01T14:15:11.116Z,36.40
2018-10-01T14:17:39.525Z,37.20
2018-10-01T14:20:08.043Z,36.90
2018-10-01T14:22:36.376Z,36.20
2018-10-01T14:25:04.868Z,36.50
2018-10-01T14:27:33.195Z,36.20
2018-10-01T14:30:01.589Z,37.10
2018-10-01T14:32:30.545Z,36.80
2018-10-01T14:34:58.955Z,36.40
2018-10-01T14:37:27.473Z,36.20
2018-10-01T14:39:55.852Z,37.20
2018-10-01T14:42:24.346Z,36.30
2018-10-01T14:44:52.812Z,36.20
2018-10-01T14:47:21.312Z,35.60
2018-10-01T14:49:49.704Z,36.90
2018-10-01T14:52:18.092Z,36.10
2018-10-01T14:54:46.498Z,35.80
2018-10-01T14:57:14.887Z,35.70
2018-10-01T14:59:43.816Z,35.40
2018-10-01T15:02:12.195Z,35.00
2018-10-01T15:04:40.635Z,35.40
2018-10-01T15:07:09.395Z,35.30
2018-10-01T15:09:37.771Z,35.70
2018-10-01T15:12:06.182Z,36.20
2018-10-01T15:14:34.555Z,36.60
2018-10-01T15:17:02.935Z,36.50
2018-10-01T15:19:31.745Z,36.60
2018-10-01T15:22:00.214Z,37.10
2018-10-01T15:24:28.604Z,37.10
2018-10-01T15:26:57.076Z,37.10
2018-10-01T15:29:25.480Z,37.10
2018-10-01T15:31:53.883Z,37.30
2018-10-01T15:34:22.252Z,37.10
2018-10-01T15:36:50.647Z,37.30
2018-10-01T15:39:19.097Z,37.80
2018-10-01T15:41:47.478Z,37.60
2018-10-01T15:44:16.828Z,38.00
2018-10-01T15:46:45.196Z,37.90
2018-10-01T15:49:13.558Z,37.70
2018-10-01T15:51:41.982Z,37.60
2018-10-01T15:54:10.447Z,37.40
2018-10-01T15:56:38.867Z,38.00
2018-10-01T15:59:07.252Z,37.80
2018-10-01T16:01:35.850Z,38.00
2018-10-01T16:04:04.438Z,38.10
2018-10-01T16:06:32.887Z,38.20
2018-10-01T16:09:01.338Z,38.30
2018-10-01T16:11:29.694Z,38.30
2018-10-01T16:13:58.076Z,38.30
2018-10-01T16:16:26.455Z,38.40
2018-10-01T16:18:54.840Z,38.50
2018-10-01T16:21:23.191Z,38.40
2018-10-01T16:23:51.590Z,38.20
2018-10-01T16:26:19.968Z,38.60
2018-10-01T16:28:48.401Z,38.40
2018-10-01T16:31:16.831Z,38.40
2018-10-01T16:33:45.241Z,38.20
2018-10-01T16:36:13.741Z,37.80
2018-10-01T16:38:42.348Z,37.70
2018-10-01T16:41:10.776Z,37.50
2018-10-01T16:43:39.492Z,37.30
2018-10-01T16:46:07.876Z,37.20
2018-10-01T16:48:36.304Z,37.20
2018-10-01T16:51:04.749Z,36.90
2018-10-01T16:53:33.340Z,37.00
2018-10-01T16:56:01.801Z,36.90
2018-10-01T16:58:30.187Z,37.30
2018-10-01T17:00:59.200Z,37.30
2018-10-01T17:03:27.601Z,37.30
2018-10-01T17:05:58.231Z,37.30
2018-10-01T17:08:27.827Z,37.60
2018-10-01T17:10:56.236Z,37.90
2018-10-01T17:13:25.043Z,38.20
2018-10-01T17:15:54.197Z,38.20
2018-10-01T17:18:22.979Z,38.50
2018-10-01T17:20:51.464Z,38.60
2018-10-01T17:23:19.873Z,38.80
2018-10-01T17:25:48.276Z,38.90
2018-10-01T17:28:16.841Z,39.00
2018-10-01T17:30:45.135Z,38.90
2018-10-01T17:33:13.528Z,39.00
2018-10-01T17:35:41.931Z,39.20
2018-10-01T17:38:10.445Z,39.20
2018-10-01T17:40:38.798Z,39.60
2018-10-01T17:43:07.360Z,39.30
2018-10-01T17:45:35.796Z,39.40
2018-10-01T17:48:04.236Z,39.50
2018-10-01T17:50:32.628Z,39.50
2018-10-01T17:53:01.532Z,39.50
2018-10-01T17:55:29.931Z,39.30
2018-10-01T17:57:58.495Z,39.20
2018-10-01T18:00:27.031Z,39.30
2018-10-01T18:02:55.453Z,39.40
2018-10-01T18:05:23.812Z,39.10
2018-10-01T18:07:52.247Z,39.20
2018-10-01T18:10:20.793Z,39.20
2018-10-01T18:12:49.402Z,38.80
2018-10-01T18:15:17.819Z,38.80
2018-10-01T18:17:46.219Z,38.80
2018-10-01T18:20:14.818Z,39.50
2018-10-01T18:22:43.387Z,38.90
2018-10-01T18:25:11.795Z,39.00
2018-10-01T18:27:40.172Z,39.00
2018-10-01T18:30:08.910Z,39.50
2018-10-01T18:32:37.429Z,39.50
2018-10-01T18:35:06.640Z,39.40
2018-10-01T18:37:35.083Z,39.40
2018-10-01T18:40:03.943Z,39.70
2018-10-01T18:42:32.353Z,39.50
2018-10-01T18:45:00.749Z,40.20
2018-10-01T18:47:29.251Z,39.60
2018-10-01T18:49:57.619Z,39.70
2018-10-01T18:52:26.076Z,39.80
2018-10-01T18:54:54.452Z,39.60
2018-10-01T18:57:22.887Z,39.80
2018-10-01T18:59:51.303Z,39.90
2018-10-01T19:02:19.728Z,39.70
2018-10-01T19:04:48.160Z,39.80
2018-10-01T19:07:16.556Z,39.60
2018-10-01T19:09:44.973Z,39.90
2018-10-01T19:12:13.378Z,39.60
2018-10-01T19:14:41.945Z,39.80
2018-10-01T19:17:10.383Z,39.90
2018-10-01T19:19:38.803Z,40.50
2018-10-01T19:22:07.197Z,39.80
2018-10-01T19:24:35.616Z,39.90
2018-10-01T19:27:04.038Z,40.00
2018-10-01T19:29:32.445Z,40.00
2018-10-01T19:32:00.863Z,40.50
2018-10-01T19:34:29.267Z,40.00
2018-10-01T19:36:57.632Z,40.00
2018-10-01T19:39:26.081Z,39.60
2018-10-01T19:41:54.443Z,39.70
2018-10-01T19:44:22.875Z,39.90
2018-10-01T19:46:51.267Z,39.90
2018-10-01T19:49:19.652Z,39.80
2018-10-01T19:51:48.043Z,39.80
2018-10-01T19:54:16.426Z,39.80
2018-10-01T19:56:44.841Z,39.90
2018-10-01T19:59:13.260Z,39.70
2018-10-01T20:01:41.690Z,40.00
2018-10-01T20:04:10.144Z,39.90
2018-10-01T20:06:38.780Z,39.60
2018-10-01T20:09:09.186Z,39.60
2018-10-01T20:11:37.703Z,39.90
2018-10-01T20:14:06.395Z,40.00
2018-10-01T20:16:34.962Z,39.60
2018-10-01T20:19:03.372Z,40.00
2018-10-01T20:21:31.807Z,39.70
2018-10-01T20:24:00.447Z,39.20
2018-10-01T20:26:28.951Z,39.80
2018-10-01T20:28:57.473Z,40.00
2018-10-01T20:31:25.681Z,39.80
2018-10-01T20:33:54.071Z,39.70
2018-10-01T20:36:22.528Z,40.00
2018-10-01T20:38:50.911Z,39.60
2018-10-01T20:41:19.385Z,39.60
2018-10-01T20:43:47.730Z,39.60
2018-10-01T20:46:16.108Z,39.40
2018-10-01T20:48:44.532Z,39.40
2018-10-01T20:51:12.942Z,39.50
2018-10-01T20:53:41.375Z,39.70
2018-10-01T20:56:09.741Z,39.90
2018-10-01T20:58:38.182Z,39.60
2018-10-01T21:01:06.607Z,39.90
2018-10-01T21:03:35.016Z,39.90
2018-10-01T21:06:03.468Z,40.60
2018-10-01T21:08:32.206Z,40.50
2018-10-01T21:11:00.618Z,40.60
2018-10-01T21:13:29.005Z,41.10
2018-10-01T21:15:57.376Z,40.30
2018-10-01T21:18:25.755Z,40.40
2018-10-01T21:20:54.129Z,40.30
2018-10-01T21:23:22.528Z,40.40
2018-10-01T21:25:50.932Z,40.30
2018-10-01T21:28:19.324Z,40.50
2018-10-01T21:30:47.847Z,40.10
2018-10-01T21:33:16.277Z,40.70
2018-10-01T21:35:44.908Z,40.50
2018-10-01T21:38:13.524Z,40.50
2018-10-01T21:40:41.970Z,40.70
2018-10-01T21:43:10.381Z,40.60
2018-10-01T21:45:38.796Z,40.70
2018-10-01T21:48:07.235Z,40.70
2018-10-01T21:50:35.670Z,41.00
2018-10-01T21:53:04.057Z,40.80
2018-10-01T21:55:32.789Z,41.00
2018-10-01T21:58:01.368Z,41.10
2018-10-01T22:00:35.033Z,41.00
2018-10-01T22:03:03.410Z,41.10
2018-10-01T22:05:31.815Z,41.10
2018-10-01T22:08:00.206Z,41.30
2018-10-01T22:10:28.606Z,41.60
2018-10-01T22:12:56.966Z,41.70
2018-10-01T22:15:27.253Z,41.40
2018-10-01T22:17:55.630Z,41.40
2018-10-01T22:20:24.115Z,41.20
2018-10-01T22:22:52.581Z,41.10
2018-10-01T22:25:20.951Z,41.30
2018-10-01T22:27:49.353Z,41.30
2018-10-01T22:30:17.863Z,41.40
2018-10-01T22:32:46.255Z,41.30
2018-10-01T22:35:14.640Z,41.30
2018-10-01T22:37:43.024Z,41.40
2018-10-01T22:40:11.412Z,41.40
2018-10-01T22:42:39.804Z,41.40
2018-10-01T22:45:08.223Z,41.40
2018-10-01T22:47:36.607Z,41.60
2018-10-01T22:50:05.136Z,41.50
2018-10-01T22:52:33.515Z,41.60
2018-10-01T22:55:01.890Z,41.60
2018-10-01T22:57:30.339Z,42.10
2018-10-01T22:59:58.715Z,41.70
2018-10-01T23:02:27.119Z,41.70
2018-10-01T23:04:55.516Z,41.70
2018-10-01T23:07:23.912Z,41.70
2018-10-01T23:09:52.266Z,41.80
2018-10-01T23:12:20.647Z,41.80
2018-10-01T23:14:49.032Z,42.00
2018-10-01T23:17:17.447Z,42.00
2018-10-01T23:19:45.807Z,42.60
2018-10-01T23:22:14.211Z,41.80
2018-10-01T23:24:42.575Z,41.80
2018-10-01T23:27:10.983Z,41.10
2018-10-01T23:29:39.415Z,40.90
2018-10-01T23:32:07.964Z,40.90
2018-10-01T23:34:36.219Z,41.00
2018-10-01T23:37:04.838Z,41.20
2018-10-01T23:39:33.210Z,41.20
2018-10-01T23:42:01.645Z,41.20
2018-10-01T23:44:30.265Z,41.20
2018-10-01T23:46:58.674Z,41.20
2018-10-01T23:49:27.130Z,41.10
2018-10-01T23:51:55.553Z,41.20
2018-10-01T23:54:23.934Z,41.20
2018-10-01T23:56:52.406Z,41.00
2018-10-01T23:59:20.795Z,41.20
